sensor_id;sensor_type;location;lat;lon;timestamp;temperature;humidity
66670;DHT22;53568;52.164;4.472;2023-03-08T00:02:13;4.58;70.54
66670;DHT22;53568;52.164;4.472;2023-03-08T00:04:38;4.55;70.40
66670;DHT22;53568;52.164;4.472;2023-03-08T00:07:04;4.55;70.42
66670;DHT22;53568;52.164;4.472;2023-03-08T00:09:29;4.55;70.41
66670;DHT22;53568;52.164;4.472;2023-03-08T00:11:55;4.54;70.55
66670;DHT22;53568;52.164;4.472;2023-03-08T00:14:20;4.51;70.54
66670;DHT22;53568;52.164;4.472;2023-03-08T00:16:47;4.57;70.19
66670;DHT22;53568;52.164;4.472;2023-03-08T00:19:13;4.57;69.90
66670;DHT22;53568;52.164;4.472;2023-03-08T00:21:39;4.53;69.74
66670;DHT22;53568;52.164;4.472;2023-03-08T00:24:05;4.41;70.03
66670;DHT22;53568;52.164;4.472;2023-03-08T00:26:30;4.38;70.17
66670;DHT22;53568;52.164;4.472;2023-03-08T00:28:56;4.34;70.44
66670;DHT22;53568;52.164;4.472;2023-03-08T00:31:21;4.36;70.42
66670;DHT22;53568;52.164;4.472;2023-03-08T00:33:51;4.31;70.72
66670;DHT22;53568;52.164;4.472;2023-03-08T00:36:18;4.30;70.82
66670;DHT22;53568;52.164;4.472;2023-03-08T00:38:45;4.33;70.90
66670;DHT22;53568;52.164;4.472;2023-03-08T00:41:11;4.45;70.33
66670;DHT22;53568;52.164;4.472;2023-03-08T00:43:37;4.41;70.24
66670;DHT22;53568;52.164;4.472;2023-03-08T00:46:04;4.34;70.45
66670;DHT22;53568;52.164;4.472;2023-03-08T00:48:30;4.27;70.40
66670;DHT22;53568;52.164;4.472;2023-03-08T00:50:55;4.33;70.48
66670;DHT22;53568;52.164;4.472;2023-03-08T00:53:21;4.37;70.30
66670;DHT22;53568;52.164;4.472;2023-03-08T00:55:55;4.40;70.09
66670;DHT22;53568;52.164;4.472;2023-03-08T00:58:22;4.37;70.36
66670;DHT22;53568;52.164;4.472;2023-03-08T01:00:48;4.36;70.62
66670;DHT22;53568;52.164;4.472;2023-03-08T01:03:14;4.34;70.71
66670;DHT22;53568;52.164;4.472;2023-03-08T01:05:46;4.37;70.62
66670;DHT22;53568;52.164;4.472;2023-03-08T01:08:13;4.48;70.52
66670;DHT22;53568;52.164;4.472;2023-03-08T01:10:39;4.58;70.27
66670;DHT22;53568;52.164;4.472;2023-03-08T01:13:06;4.54;70.01
66670;DHT22;53568;52.164;4.472;2023-03-08T01:15:37;4.45;70.13
66670;DHT22;53568;52.164;4.472;2023-03-08T01:18:04;4.41;70.35
66670;DHT22;53568;52.164;4.472;2023-03-08T01:20:29;4.48;70.38
66670;DHT22;53568;52.164;4.472;2023-03-08T01:22:55;4.54;70.28
66670;DHT22;53568;52.164;4.472;2023-03-08T01:25:21;4.55;70.46
66670;DHT22;53568;52.164;4.472;2023-03-08T01:27:46;4.41;70.16
66670;DHT22;53568;52.164;4.472;2023-03-08T01:30:12;4.20;70.62
66670;DHT22;53568;52.164;4.472;2023-03-08T01:32:37;4.07;71.00
66670;DHT22;53568;52.164;4.472;2023-03-08T01:35:03;4.14;70.97
66670;DHT22;53568;52.164;4.472;2023-03-08T01:37:31;3.97;71.55
66670;DHT22;53568;52.164;4.472;2023-03-08T01:39:57;3.58;73.84
66670;DHT22;53568;52.164;4.472;2023-03-08T01:42:23;3.62;74.16
66670;DHT22;53568;52.164;4.472;2023-03-08T01:44:56;3.35;75.85
66670;DHT22;53568;52.164;4.472;2023-03-08T01:47:25;3.31;76.27
66670;DHT22;53568;52.164;4.472;2023-03-08T01:49:54;3.25;76.93
66670;DHT22;53568;52.164;4.472;2023-03-08T01:52:37;3.28;76.73
66670;DHT22;53568;52.164;4.472;2023-03-08T01:55:08;3.25;76.80
66670;DHT22;53568;52.164;4.472;2023-03-08T01:57:38;3.32;76.20
66670;DHT22;53568;52.164;4.472;2023-03-08T02:00:19;3.21;75.58
66670;DHT22;53568;52.164;4.472;2023-03-08T02:02:58;3.15;74.73
66670;DHT22;53568;52.164;4.472;2023-03-08T02:05:26;3.43;73.04
66670;DHT22;53568;52.164;4.472;2023-03-08T02:07:51;3.59;72.11
66670;DHT22;53568;52.164;4.472;2023-03-08T02:10:21;3.75;72.11
66670;DHT22;53568;52.164;4.472;2023-03-08T02:12:47;3.89;71.29
66670;DHT22;53568;52.164;4.472;2023-03-08T02:15:17;3.97;71.42
66670;DHT22;53568;52.164;4.472;2023-03-08T02:17:45;4.01;71.06
66670;DHT22;53568;52.164;4.472;2023-03-08T02:20:15;4.16;70.53
66670;DHT22;53568;52.164;4.472;2023-03-08T02:22:43;4.25;69.85
66670;DHT22;53568;52.164;4.472;2023-03-08T02:25:18;4.33;69.47
66670;DHT22;53568;52.164;4.472;2023-03-08T02:27:44;4.38;69.12
66670;DHT22;53568;52.164;4.472;2023-03-08T02:30:12;4.48;68.58
66670;DHT22;53568;52.164;4.472;2023-03-08T02:32:38;4.54;68.07
66670;DHT22;53568;52.164;4.472;2023-03-08T02:35:03;4.53;67.82
66670;DHT22;53568;52.164;4.472;2023-03-08T02:37:34;4.55;67.95
66670;DHT22;53568;52.164;4.472;2023-03-08T02:39:59;4.58;68.24
66670;DHT22;53568;52.164;4.472;2023-03-08T02:42:25;4.54;69.12
66670;DHT22;53568;52.164;4.472;2023-03-08T02:44:51;4.62;69.23
66670;DHT22;53568;52.164;4.472;2023-03-08T02:47:16;4.54;69.91
66670;DHT22;53568;52.164;4.472;2023-03-08T02:49:42;4.38;70.98
66670;DHT22;53568;52.164;4.472;2023-03-08T02:52:07;4.38;70.70
66670;DHT22;53568;52.164;4.472;2023-03-08T02:54:33;4.27;71.47
66670;DHT22;53568;52.164;4.472;2023-03-08T02:56:58;4.30;71.33
66670;DHT22;53568;52.164;4.472;2023-03-08T02:59:24;4.25;71.50
66670;DHT22;53568;52.164;4.472;2023-03-08T03:01:51;4.22;71.83
66670;DHT22;53568;52.164;4.472;2023-03-08T03:04:16;4.20;72.10
66670;DHT22;53568;52.164;4.472;2023-03-08T03:06:42;4.24;71.98
66670;DHT22;53568;52.164;4.472;2023-03-08T03:09:09;4.29;72.22
66670;DHT22;53568;52.164;4.472;2023-03-08T03:11:35;4.31;72.03
66670;DHT22;53568;52.164;4.472;2023-03-08T03:14:00;4.34;72.03
66670;DHT22;53568;52.164;4.472;2023-03-08T03:16:27;4.31;71.90
66670;DHT22;53568;52.164;4.472;2023-03-08T03:18:54;4.34;71.95
66670;DHT22;53568;52.164;4.472;2023-03-08T03:21:21;4.31;71.93
66670;DHT22;53568;52.164;4.472;2023-03-08T03:23:47;4.33;72.07
66670;DHT22;53568;52.164;4.472;2023-03-08T03:26:16;4.33;72.15
66670;DHT22;53568;52.164;4.472;2023-03-08T03:28:42;4.36;72.18
66670;DHT22;53568;52.164;4.472;2023-03-08T03:31:14;4.43;71.65
66670;DHT22;53568;52.164;4.472;2023-03-08T03:33:40;4.40;71.31
66670;DHT22;53568;52.164;4.472;2023-03-08T03:36:07;4.07;72.25
66670;DHT22;53568;52.164;4.472;2023-03-08T03:38:35;3.99;72.64
66670;DHT22;53568;52.164;4.472;2023-03-08T03:41:06;4.04;72.95
66670;DHT22;53568;52.164;4.472;2023-03-08T03:43:31;4.09;72.90
66670;DHT22;53568;52.164;4.472;2023-03-08T03:45:59;4.03;72.72
66670;DHT22;53568;52.164;4.472;2023-03-08T03:48:26;4.13;72.47
66670;DHT22;53568;52.164;4.472;2023-03-08T03:51:10;4.10;71.85
66670;DHT22;53568;52.164;4.472;2023-03-08T03:53:36;3.79;72.33
66670;DHT22;53568;52.164;4.472;2023-03-08T03:56:04;3.23;73.79
66670;DHT22;53568;52.164;4.472;2023-03-08T03:58:30;3.32;73.77
66670;DHT22;53568;52.164;4.472;2023-03-08T04:00:56;3.49;73.35
66670;DHT22;53568;52.164;4.472;2023-03-08T04:03:21;3.58;73.40
66670;DHT22;53568;52.164;4.472;2023-03-08T04:05:47;3.67;72.98
66670;DHT22;53568;52.164;4.472;2023-03-08T04:08:12;3.80;72.64
66670;DHT22;53568;52.164;4.472;2023-03-08T04:10:38;3.80;72.25
66670;DHT22;53568;52.164;4.472;2023-03-08T04:13:04;3.90;72.12
66670;DHT22;53568;52.164;4.472;2023-03-08T04:15:29;3.96;72.03
66670;DHT22;53568;52.164;4.472;2023-03-08T04:17:55;4.06;71.69
66670;DHT22;53568;52.164;4.472;2023-03-08T04:20:20;4.07;71.49
66670;DHT22;53568;52.164;4.472;2023-03-08T04:22:46;4.13;71.18
66670;DHT22;53568;52.164;4.472;2023-03-08T04:25:11;4.10;71.22
66670;DHT22;53568;52.164;4.472;2023-03-08T04:27:37;4.13;71.07
66670;DHT22;53568;52.164;4.472;2023-03-08T04:30:03;4.14;71.01
66670;DHT22;53568;52.164;4.472;2023-03-08T04:32:30;4.11;71.08
66670;DHT22;53568;52.164;4.472;2023-03-08T04:34:56;4.09;71.38
66670;DHT22;53568;52.164;4.472;2023-03-08T04:37:24;4.11;71.39
66670;DHT22;53568;52.164;4.472;2023-03-08T04:39:50;4.10;71.70
66670;DHT22;53568;52.164;4.472;2023-03-08T04:42:16;4.13;71.76
66670;DHT22;53568;52.164;4.472;2023-03-08T04:44:41;4.18;71.73
66670;DHT22;53568;52.164;4.472;2023-03-08T04:47:08;4.18;71.61
66670;DHT22;53568;52.164;4.472;2023-03-08T04:49:33;4.11;71.68
66670;DHT22;53568;52.164;4.472;2023-03-08T04:51:58;4.10;71.89
66670;DHT22;53568;52.164;4.472;2023-03-08T04:54:24;4.18;71.99
66670;DHT22;53568;52.164;4.472;2023-03-08T04:56:50;4.25;71.84
66670;DHT22;53568;52.164;4.472;2023-03-08T04:59:15;4.27;71.58
66670;DHT22;53568;52.164;4.472;2023-03-08T05:01:41;4.30;71.32
66670;DHT22;53568;52.164;4.472;2023-03-08T05:04:09;4.25;71.24
66670;DHT22;53568;52.164;4.472;2023-03-08T05:06:35;4.09;71.78
66670;DHT22;53568;52.164;4.472;2023-03-08T05:09:01;4.11;71.82
66670;DHT22;53568;52.164;4.472;2023-03-08T05:11:27;4.03;72.30
66670;DHT22;53568;52.164;4.472;2023-03-08T05:13:55;4.00;72.36
66670;DHT22;53568;52.164;4.472;2023-03-08T05:16:21;3.99;72.22
66670;DHT22;53568;52.164;4.472;2023-03-08T05:18:46;4.01;71.96
66670;DHT22;53568;52.164;4.472;2023-03-08T05:21:15;4.01;72.10
66670;DHT22;53568;52.164;4.472;2023-03-08T05:23:42;4.01;71.86
66670;DHT22;53568;52.164;4.472;2023-03-08T05:26:10;4.04;71.68
66670;DHT22;53568;52.164;4.472;2023-03-08T05:28:36;4.04;71.45
66670;DHT22;53568;52.164;4.472;2023-03-08T05:31:06;4.04;70.52
66670;DHT22;53568;52.164;4.472;2023-03-08T05:33:33;4.00;70.64
66670;DHT22;53568;52.164;4.472;2023-03-08T05:35:59;4.03;70.44
66670;DHT22;53568;52.164;4.472;2023-03-08T05:38:25;4.01;70.32
66670;DHT22;53568;52.164;4.472;2023-03-08T05:40:51;3.93;70.25
66670;DHT22;53568;52.164;4.472;2023-03-08T05:43:18;3.91;70.22
66670;DHT22;53568;52.164;4.472;2023-03-08T05:45:54;3.90;70.51
66670;DHT22;53568;52.164;4.472;2023-03-08T05:48:20;3.86;70.71
66670;DHT22;53568;52.164;4.472;2023-03-08T05:50:46;3.83;71.12
66670;DHT22;53568;52.164;4.472;2023-03-08T05:53:11;3.75;71.76
66670;DHT22;53568;52.164;4.472;2023-03-08T05:55:37;3.62;72.67
66670;DHT22;53568;52.164;4.472;2023-03-08T05:58:02;3.62;73.08
66670;DHT22;53568;52.164;4.472;2023-03-08T06:00:28;3.58;73.51
66670;DHT22;53568;52.164;4.472;2023-03-08T06:02:54;3.59;73.78
66670;DHT22;53568;52.164;4.472;2023-03-08T06:05:19;3.67;73.36
66670;DHT22;53568;52.164;4.472;2023-03-08T06:07:45;3.62;73.24
66670;DHT22;53568;52.164;4.472;2023-03-08T06:10:10;3.59;73.55
66670;DHT22;53568;52.164;4.472;2023-03-08T06:12:36;3.55;73.51
66670;DHT22;53568;52.164;4.472;2023-03-08T06:15:01;3.51;73.93
66670;DHT22;53568;52.164;4.472;2023-03-08T06:17:27;3.46;74.19
66670;DHT22;53568;52.164;4.472;2023-03-08T06:19:52;3.48;74.53
66670;DHT22;53568;52.164;4.472;2023-03-08T06:22:18;3.46;74.89
66670;DHT22;53568;52.164;4.472;2023-03-08T06:24:44;3.46;75.09
66670;DHT22;53568;52.164;4.472;2023-03-08T06:27:14;3.51;75.01
66670;DHT22;53568;52.164;4.472;2023-03-08T06:29:39;3.52;75.01
66670;DHT22;53568;52.164;4.472;2023-03-08T06:32:05;3.51;75.13
66670;DHT22;53568;52.164;4.472;2023-03-08T06:34:31;3.42;75.26
66670;DHT22;53568;52.164;4.472;2023-03-08T06:36:57;3.36;75.94
66670;DHT22;53568;52.164;4.472;2023-03-08T06:39:24;3.43;76.11
66670;DHT22;53568;52.164;4.472;2023-03-08T06:41:50;3.43;76.07
66670;DHT22;53568;52.164;4.472;2023-03-08T06:44:15;3.53;75.89
66670;DHT22;53568;52.164;4.472;2023-03-08T06:46:41;3.58;75.81
66670;DHT22;53568;52.164;4.472;2023-03-08T06:49:06;3.52;75.88
66670;DHT22;53568;52.164;4.472;2023-03-08T06:51:32;3.46;75.79
66670;DHT22;53568;52.164;4.472;2023-03-08T06:53:58;3.49;75.94
66670;DHT22;53568;52.164;4.472;2023-03-08T06:56:23;3.49;76.30
66670;DHT22;53568;52.164;4.472;2023-03-08T06:58:48;3.53;76.35
66670;DHT22;53568;52.164;4.472;2023-03-08T07:01:14;3.53;76.40
66670;DHT22;53568;52.164;4.472;2023-03-08T07:03:40;3.59;76.55
66670;DHT22;53568;52.164;4.472;2023-03-08T07:06:08;3.69;76.32
66670;DHT22;53568;52.164;4.472;2023-03-08T07:08:35;3.72;76.18
66670;DHT22;53568;52.164;4.472;2023-03-08T07:11:01;3.73;76.28
66670;DHT22;53568;52.164;4.472;2023-03-08T07:13:27;3.77;76.35
66670;DHT22;53568;52.164;4.472;2023-03-08T07:15:53;3.86;76.37
66670;DHT22;53568;52.164;4.472;2023-03-08T07:18:19;3.89;76.40
66670;DHT22;53568;52.164;4.472;2023-03-08T07:20:45;4.03;76.11
66670;DHT22;53568;52.164;4.472;2023-03-08T07:23:15;3.93;75.93
66670;DHT22;53568;52.164;4.472;2023-03-08T07:25:40;4.00;76.04
66670;DHT22;53568;52.164;4.472;2023-03-08T07:28:06;3.97;75.49
66670;DHT22;53568;52.164;4.472;2023-03-08T07:30:33;3.80;76.06
66670;DHT22;53568;52.164;4.472;2023-03-08T07:32:58;3.77;76.03
66670;DHT22;53568;52.164;4.472;2023-03-08T07:35:24;3.79;76.27
66670;DHT22;53568;52.164;4.472;2023-03-08T07:37:49;3.82;76.17
66670;DHT22;53568;52.164;4.472;2023-03-08T07:40:16;3.79;76.05
66670;DHT22;53568;52.164;4.472;2023-03-08T07:42:42;3.89;75.95
66670;DHT22;53568;52.164;4.472;2023-03-08T07:45:10;3.93;76.06
66670;DHT22;53568;52.164;4.472;2023-03-08T07:47:37;4.00;75.79
66670;DHT22;53568;52.164;4.472;2023-03-08T07:50:02;4.01;75.40
66670;DHT22;53568;52.164;4.472;2023-03-08T07:52:29;4.04;75.19
66670;DHT22;53568;52.164;4.472;2023-03-08T07:54:55;3.87;75.25
66670;DHT22;53568;52.164;4.472;2023-03-08T07:57:21;3.93;75.58
66670;DHT22;53568;52.164;4.472;2023-03-08T07:59:46;3.93;75.61
66670;DHT22;53568;52.164;4.472;2023-03-08T08:02:13;3.99;75.79
66670;DHT22;53568;52.164;4.472;2023-03-08T08:04:39;4.09;75.44
66670;DHT22;53568;52.164;4.472;2023-03-08T08:07:05;4.14;75.19
66670;DHT22;53568;52.164;4.472;2023-03-08T08:09:31;4.11;74.96
66670;DHT22;53568;52.164;4.472;2023-03-08T08:11:58;4.14;74.55
66670;DHT22;53568;52.164;4.472;2023-03-08T08:14:23;4.14;74.39
66670;DHT22;53568;52.164;4.472;2023-03-08T08:16:49;4.22;74.18
66670;DHT22;53568;52.164;4.472;2023-03-08T08:19:15;4.20;73.71
66670;DHT22;53568;52.164;4.472;2023-03-08T08:21:41;4.20;73.81
66670;DHT22;53568;52.164;4.472;2023-03-08T08:24:07;4.11;74.11
66670;DHT22;53568;52.164;4.472;2023-03-08T08:26:32;4.13;74.06
66670;DHT22;53568;52.164;4.472;2023-03-08T08:28:58;4.03;74.54
66670;DHT22;53568;52.164;4.472;2023-03-08T08:31:27;3.93;75.08
66670;DHT22;53568;52.164;4.472;2023-03-08T08:33:55;3.87;75.31
66670;DHT22;53568;52.164;4.472;2023-03-08T08:36:21;3.80;75.12
66670;DHT22;53568;52.164;4.472;2023-03-08T08:38:47;3.80;75.59
66670;DHT22;53568;52.164;4.472;2023-03-08T08:41:15;3.77;75.70
66670;DHT22;53568;52.164;4.472;2023-03-08T08:43:43;3.75;75.65
66670;DHT22;53568;52.164;4.472;2023-03-08T08:46:09;3.60;76.03
66670;DHT22;53568;52.164;4.472;2023-03-08T08:48:34;3.59;76.33
66670;DHT22;53568;52.164;4.472;2023-03-08T08:51:06;3.56;76.47
66670;DHT22;53568;52.164;4.472;2023-03-08T08:53:32;3.52;76.65
66670;DHT22;53568;52.164;4.472;2023-03-08T08:55:58;3.42;76.75
66670;DHT22;53568;52.164;4.472;2023-03-08T08:58:24;3.43;76.93
66670;DHT22;53568;52.164;4.472;2023-03-08T09:00:51;3.48;76.99
66670;DHT22;53568;52.164;4.472;2023-03-08T09:03:16;3.46;76.96
66670;DHT22;53568;52.164;4.472;2023-03-08T09:05:43;3.49;77.40
66670;DHT22;53568;52.164;4.472;2023-03-08T09:08:10;3.49;77.22
66670;DHT22;53568;52.164;4.472;2023-03-08T09:10:39;3.49;76.99
66670;DHT22;53568;52.164;4.472;2023-03-08T09:13:05;3.43;77.43
66670;DHT22;53568;52.164;4.472;2023-03-08T09:15:31;3.45;77.21
66670;DHT22;53568;52.164;4.472;2023-03-08T09:17:57;3.46;77.25
66670;DHT22;53568;52.164;4.472;2023-03-08T09:20:22;3.48;77.37
66670;DHT22;53568;52.164;4.472;2023-03-08T09:22:48;3.43;77.47
66670;DHT22;53568;52.164;4.472;2023-03-08T09:25:14;3.39;77.69
66670;DHT22;53568;52.164;4.472;2023-03-08T09:27:40;3.43;77.63
66670;DHT22;53568;52.164;4.472;2023-03-08T09:30:14;3.48;77.50
66670;DHT22;53568;52.164;4.472;2023-03-08T09:32:39;3.56;77.68
66670;DHT22;53568;52.164;4.472;2023-03-08T09:35:06;3.63;77.32
66670;DHT22;53568;52.164;4.472;2023-03-08T09:37:32;3.63;77.27
66670;DHT22;53568;52.164;4.472;2023-03-08T09:39:58;3.59;77.07
66670;DHT22;53568;52.164;4.472;2023-03-08T09:42:28;3.53;77.11
66670;DHT22;53568;52.164;4.472;2023-03-08T09:47:40;3.46;77.70
66670;DHT22;53568;52.164;4.472;2023-03-08T09:55:30;3.77;76.86
66670;DHT22;53568;52.164;4.472;2023-03-08T09:58:04;3.75;76.66
66670;DHT22;53568;52.164;4.472;2023-03-08T10:00:36;3.67;76.50
66670;DHT22;53568;52.164;4.472;2023-03-08T10:08:37;3.83;76.49
66670;DHT22;53568;52.164;4.472;2023-03-08T10:11:17;3.87;76.44
66670;DHT22;53568;52.164;4.472;2023-03-08T10:13:50;3.91;76.43
66670;DHT22;53568;52.164;4.472;2023-03-08T10:16:34;4.07;75.79
66670;DHT22;53568;52.164;4.472;2023-03-08T10:19:18;4.25;75.19
66670;DHT22;53568;52.164;4.472;2023-03-08T10:21:45;4.38;74.54
66670;DHT22;53568;52.164;4.472;2023-03-08T10:26:43;4.53;74.14
66670;DHT22;53568;52.164;4.472;2023-03-08T10:29:13;4.48;73.48
66670;DHT22;53568;52.164;4.472;2023-03-08T10:31:42;4.65;73.57
66670;DHT22;53568;52.164;4.472;2023-03-08T10:34:11;4.55;72.84
66670;DHT22;53568;52.164;4.472;2023-03-08T10:36:51;4.60;73.32
66670;DHT22;53568;52.164;4.472;2023-03-08T10:39:18;4.58;73.23
66670;DHT22;53568;52.164;4.472;2023-03-08T10:41:56;4.62;72.30
66670;DHT22;53568;52.164;4.472;2023-03-08T10:44:42;4.64;71.45
66670;DHT22;53568;52.164;4.472;2023-03-08T10:47:30;4.74;71.28
66670;DHT22;53568;52.164;4.472;2023-03-08T10:52:28;4.89;71.11
66670;DHT22;53568;52.164;4.472;2023-03-08T10:55:09;4.81;70.55
66670;DHT22;53568;52.164;4.472;2023-03-08T10:57:36;4.79;70.07
66670;DHT22;53568;52.164;4.472;2023-03-08T11:00:20;4.74;70.16
66670;DHT22;53568;52.164;4.472;2023-03-08T11:02:48;4.84;70.29
66670;DHT22;53568;52.164;4.472;2023-03-08T11:07:49;4.91;70.30
66670;DHT22;53568;52.164;4.472;2023-03-08T11:10:18;4.85;70.05
66670;DHT22;53568;52.164;4.472;2023-03-08T11:12:44;4.85;69.94
66670;DHT22;53568;52.164;4.472;2023-03-08T11:15:18;4.74;70.72
66670;DHT22;53568;52.164;4.472;2023-03-08T11:18:56;4.71;71.15
66670;DHT22;53568;52.164;4.472;2023-03-08T11:20:57;4.65;71.38
66670;DHT22;53568;52.164;4.472;2023-03-08T11:23:44;4.71;71.77
66670;DHT22;53568;52.164;4.472;2023-03-08T11:26:29;4.62;71.55
66670;DHT22;53568;52.164;4.472;2023-03-08T11:32:00;4.57;72.15
66670;DHT22;53568;52.164;4.472;2023-03-08T11:35:02;4.47;72.65
66670;DHT22;53568;52.164;4.472;2023-03-08T11:40:26;4.34;73.05
66670;DHT22;53568;52.164;4.472;2023-03-08T11:51:52;4.78;70.19
66670;DHT22;53568;52.164;4.472;2023-03-08T11:54:50;4.88;70.74
66670;DHT22;53568;52.164;4.472;2023-03-08T11:57:20;4.93;70.65
66670;DHT22;53568;52.164;4.472;2023-03-08T11:59:56;4.89;70.42
66670;DHT22;53568;52.164;4.472;2023-03-08T12:02:33;4.72;70.94
66670;DHT22;53568;52.164;4.472;2023-03-08T12:07:38;4.72;71.60
66670;DHT22;53568;52.164;4.472;2023-03-08T12:10:24;4.91;71.31
66670;DHT22;53568;52.164;4.472;2023-03-08T12:12:58;4.88;70.64
66670;DHT22;53568;52.164;4.472;2023-03-08T12:18:13;4.81;70.86
66670;DHT22;53568;52.164;4.472;2023-03-08T12:20:42;4.84;69.91
66670;DHT22;53568;52.164;4.472;2023-03-08T12:26:09;4.89;69.48
66670;DHT22;53568;52.164;4.472;2023-03-08T12:28:47;4.96;68.72
66670;DHT22;53568;52.164;4.472;2023-03-08T12:31:29;4.96;68.72
66670;DHT22;53568;52.164;4.472;2023-03-08T12:33:58;5.02;68.15
66670;DHT22;53568;52.164;4.472;2023-03-08T12:36:44;4.84;68.36
66670;DHT22;53568;52.164;4.472;2023-03-08T12:39:25;4.71;68.31
66670;DHT22;53568;52.164;4.472;2023-03-08T12:41:57;4.89;68.70
66670;DHT22;53568;52.164;4.472;2023-03-08T12:44:29;5.02;67.77
66670;DHT22;53568;52.164;4.472;2023-03-08T12:46:59;4.93;67.98
66670;DHT22;53568;52.164;4.472;2023-03-08T12:49:35;4.86;68.42
66670;DHT22;53568;52.164;4.472;2023-03-08T12:57:35;4.79;70.58
66670;DHT22;53568;52.164;4.472;2023-03-08T13:00:29;4.64;71.30
66670;DHT22;53568;52.164;4.472;2023-03-08T13:03:23;4.79;71.02
66670;DHT22;53568;52.164;4.472;2023-03-08T13:05:50;4.92;70.09
66670;DHT22;53568;52.164;4.472;2023-03-08T13:08:33;5.00;69.07
66670;DHT22;53568;52.164;4.472;2023-03-08T13:11:13;4.99;69.11
66670;DHT22;53568;52.164;4.472;2023-03-08T13:13:44;4.91;68.75
66670;DHT22;53568;52.164;4.472;2023-03-08T13:18:44;5.11;69.29
66670;DHT22;53568;52.164;4.472;2023-03-08T13:29:20;5.12;70.04
66670;DHT22;53568;52.164;4.472;2023-03-08T13:31:47;5.15;69.70
66670;DHT22;53568;52.164;4.472;2023-03-08T13:34:31;5.23;69.24
66670;DHT22;53568;52.164;4.472;2023-03-08T13:36:57;5.32;69.12
66670;DHT22;53568;52.164;4.472;2023-03-08T13:39:27;5.25;68.09
66670;DHT22;53568;52.164;4.472;2023-03-08T13:42:14;5.05;69.16
66670;DHT22;53568;52.164;4.472;2023-03-08T13:44:39;5.06;69.14
66670;DHT22;53568;52.164;4.472;2023-03-08T13:47:21;5.20;69.07
66670;DHT22;53568;52.164;4.472;2023-03-08T13:49:48;5.26;68.61
66670;DHT22;53568;52.164;4.472;2023-03-08T13:52:19;5.23;68.63
66670;DHT22;53568;52.164;4.472;2023-03-08T13:54:50;4.98;68.96
66670;DHT22;53568;52.164;4.472;2023-03-08T13:57:20;5.16;68.45
66670;DHT22;53568;52.164;4.472;2023-03-08T13:59:49;5.06;68.28
66670;DHT22;53568;52.164;4.472;2023-03-08T14:02:22;5.05;68.05
66670;DHT22;53568;52.164;4.472;2023-03-08T14:04:48;5.04;68.04
66670;DHT22;53568;52.164;4.472;2023-03-08T14:07:29;5.22;68.12
66670;DHT22;53568;52.164;4.472;2023-03-08T14:09:57;5.18;68.08
66670;DHT22;53568;52.164;4.472;2023-03-08T14:12:27;5.13;66.38
66670;DHT22;53568;52.164;4.472;2023-03-08T14:14:57;5.29;66.83
66670;DHT22;53568;52.164;4.472;2023-03-08T14:17:27;5.28;66.50
66670;DHT22;53568;52.164;4.472;2023-03-08T14:19:56;5.26;65.15
66670;DHT22;53568;52.164;4.472;2023-03-08T14:22:28;5.18;65.34
66670;DHT22;53568;52.164;4.472;2023-03-08T14:24:59;5.35;65.60
66670;DHT22;53568;52.164;4.472;2023-03-08T14:27:41;5.40;65.40
66670;DHT22;53568;52.164;4.472;2023-03-08T14:30:22;5.15;65.63
66670;DHT22;53568;52.164;4.472;2023-03-08T14:32:58;5.22;65.21
66670;DHT22;53568;52.164;4.472;2023-03-08T14:35:27;5.11;64.66
66670;DHT22;53568;52.164;4.472;2023-03-08T14:37:54;5.09;64.36
66670;DHT22;53568;52.164;4.472;2023-03-08T14:40:28;4.91;64.37
66670;DHT22;53568;52.164;4.472;2023-03-08T14:43:03;4.93;64.69
66670;DHT22;53568;52.164;4.472;2023-03-08T14:45:41;4.84;
66670;DHT22;53568;52.164;4.472;2023-03-08T14:50:59;4.92;65.49
66670;DHT22;53568;52.164;4.472;2023-03-08T14:53:32;4.95;66.15
66670;DHT22;53568;52.164;4.472;2023-03-08T14:56:10;4.81;66.95
66670;DHT22;53568;52.164;4.472;2023-03-08T14:58:40;4.93;67.10
66670;DHT22;53568;52.164;4.472;2023-03-08T15:01:06;4.98;66.44
66670;DHT22;53568;52.164;4.472;2023-03-08T15:03:31;4.99;66.24
66670;DHT22;53568;52.164;4.472;2023-03-08T15:06:00;4.82;65.86
66670;DHT22;53568;52.164;4.472;2023-03-08T15:08:29;4.82;66.87
66670;DHT22;53568;52.164;4.472;2023-03-08T15:10:55;4.82;67.47
66670;DHT22;53568;52.164;4.472;2023-03-08T15:13:22;4.78;67.34
66670;DHT22;53568;52.164;4.472;2023-03-08T15:15:48;4.74;66.43
66670;DHT22;53568;52.164;4.472;2023-03-08T15:18:14;4.81;66.46
66670;DHT22;53568;52.164;4.472;2023-03-08T15:20:44;4.81;66.58
66670;DHT22;53568;52.164;4.472;2023-03-08T15:25:47;4.61;68.17
66670;DHT22;53568;52.164;4.472;2023-03-08T15:28:15;4.68;68.96
66670;DHT22;53568;52.164;4.472;2023-03-08T15:30:41;4.72;69.44
66670;DHT22;53568;52.164;4.472;2023-03-08T15:33:06;4.69;70.36
66670;DHT22;53568;52.164;4.472;2023-03-08T15:35:32;4.74;70.88
66670;DHT22;53568;52.164;4.472;2023-03-08T15:37:58;4.62;71.55
66670;DHT22;53568;52.164;4.472;2023-03-08T15:40:28;4.57;71.75
66670;DHT22;53568;52.164;4.472;2023-03-08T15:42:54;4.57;72.38
66670;DHT22;53568;52.164;4.472;2023-03-08T15:45:20;4.58;72.45
66670;DHT22;53568;52.164;4.472;2023-03-08T15:48:18;4.60;72.67
66670;DHT22;53568;52.164;4.472;2023-03-08T15:50:44;4.51;72.54
66670;DHT22;53568;52.164;4.472;2023-03-08T15:53:11;4.50;72.53
66670;DHT22;53568;52.164;4.472;2023-03-08T15:55:38;4.44;73.22
66670;DHT22;53568;52.164;4.472;2023-03-08T15:58:04;4.41;73.42
66670;DHT22;53568;52.164;4.472;2023-03-08T16:00:30;4.30;74.08
66670;DHT22;53568;52.164;4.472;2023-03-08T16:02:57;4.29;73.12
66670;DHT22;53568;52.164;4.472;2023-03-08T16:05:23;4.16;73.51
66670;DHT22;53568;52.164;4.472;2023-03-08T16:08:00;4.11;73.49
66670;DHT22;53568;52.164;4.472;2023-03-08T16:10:29;4.01;74.26
66670;DHT22;53568;52.164;4.472;2023-03-08T16:12:55;4.11;74.08
66670;DHT22;53568;52.164;4.472;2023-03-08T16:15:21;3.85;74.38
66670;DHT22;53568;52.164;4.472;2023-03-08T16:17:47;3.75;74.11
66670;DHT22;53568;52.164;4.472;2023-03-08T16:20:14;3.77;74.55
66670;DHT22;53568;52.164;4.472;2023-03-08T16:22:40;3.73;74.93
66670;DHT22;53568;52.164;4.472;2023-03-08T16:25:07;3.82;75.16
66670;DHT22;53568;52.164;4.472;2023-03-08T16:27:34;3.87;74.58
66670;DHT22;53568;52.164;4.472;2023-03-08T16:30:00;3.87;74.92
66670;DHT22;53568;52.164;4.472;2023-03-08T16:32:27;3.82;75.22
66670;DHT22;53568;52.164;4.472;2023-03-08T16:34:57;3.93;75.16
66670;DHT22;53568;52.164;4.472;2023-03-08T16:37:23;3.89;75.12
66670;DHT22;53568;52.164;4.472;2023-03-08T16:39:50;3.89;75.44
66670;DHT22;53568;52.164;4.472;2023-03-08T16:42:17;3.91;76.05
66670;DHT22;53568;52.164;4.472;2023-03-08T16:44:48;3.87;76.05
66670;DHT22;53568;52.164;4.472;2023-03-08T16:47:15;3.99;76.05
66670;DHT22;53568;52.164;4.472;2023-03-08T16:49:40;4.01;76.63
66670;DHT22;53568;52.164;4.472;2023-03-08T16:52:06;4.04;76.46
66670;DHT22;53568;52.164;4.472;2023-03-08T16:54:31;3.97;76.78
66670;DHT22;53568;52.164;4.472;2023-03-08T16:56:57;3.94;77.26
66670;DHT22;53568;52.164;4.472;2023-03-08T16:59:22;3.99;76.95
66670;DHT22;53568;52.164;4.472;2023-03-08T17:01:48;3.96;77.16
66670;DHT22;53568;52.164;4.472;2023-03-08T17:04:14;4.00;77.27